ENFL

Florø Airport

Florø, Norway
METAR ENFL 242050Z AUTO 23014KT 9999NDV SHRA FEW018/// BKN037/// BKN049/// 08/04 Q1027
Observed Flight Rules
Sep-24 @ 20:50 UTC (35 minutes ago)
Wind Clouds Conditions
230° at 14 knots
  • Few at 1,800' AGL
  • Broken at 3,700' AGL
  • Broken at 4,900' AGL
  • Rain
Temperatures Readings
Current 8°C / 46°F
Dewpoint 4°C / 39°F
Humidity 76%
Altimeter 30.32" Hg
Pressure 1027 hPa
Elevation 9
METAR ENFL 242050Z AUTO 23014KT 9999NDV SHRA FEW018/// BKN037/// BKN049/// 08/04 Q1027
Observed Flight Rules
Sep-24 @ 20:50 UTC
(35 minutes ago)
Wind
230° at 14 knots
Clouds
  • Few at 1,800' AGL
  • Broken at 3,700' AGL
  • Broken at 4,900' AGL
Conditions
  • Rain
Temperature Dewpoint
8°C / 46°F 4°C / 39°F
Humidity Altimeter Pressure
76% 30.32" Hg 1027 hPa